Time;durP1;ratioP1;P1;durP2;ratioP2;P2;SDS_P1;SDS_P2;PMS_P1;PMS_P2;Temp;Humidity;BMP_temperature;BMP_pressure;BME280_temperature;BME280_humidity;BME280_pressure;Samples;Min_cycle;Max_cycle;Signal;HPM_P1;HPM_P2
2021/06/07 00:00:44;;;;;;;;;;;;;;;16.86;100.00;99691.31;5061655;28;19920;-64
2021/06/07 00:03:09;;;;;;;;;;;;;;;16.97;100.00;99688.19;5056696;28;20410;-63
2021/06/07 00:05:34;;;;;;;;;;;;;;;16.96;100.00;99694.31;5053810;28;20006;-64
2021/06/07 00:08:00;;;;;;;;;;;;;;;16.59;100.00;99685.59;5058326;28;19920;-64
2021/06/07 00:10:25;;;;;;;;;;;;;;;16.31;100.00;99692.03;5054800;28;19921;-64
2021/06/07 00:12:51;;;;;;;;;;;;;;;16.00;100.00;99702.09;5038574;28;20363;-64
2021/06/07 00:15:17;;;;;;;;;;;;;;;16.20;100.00;99702.06;5014318;28;19921;-64
2021/06/07 00:17:43;;;;;;;;;;;;;;;15.99;100.00;99697.81;5053302;28;19920;-63
2021/06/07 00:20:09;;;;;;;;;;;;;;;16.00;100.00;99694.28;5051469;28;20274;-63
2021/06/07 00:22:35;;;;;;;;;;;;;;;16.34;100.00;99704.03;5050022;28;19932;-64
2021/06/07 00:25:00;;;;;;;;;;;;;;;16.11;100.00;99702.47;5054894;28;20339;-63
2021/06/07 00:27:26;;;;;;;;;;;;;;;16.52;100.00;99697.19;5035019;28;20003;-64
2021/06/07 00:29:51;;;;;;;;;;;;;;;16.46;100.00;99708.69;5056451;28;19917;-63
2021/06/07 00:32:17;;;;;;;;;;;;;;;16.39;100.00;99706.44;5053506;28;19917;-64
2021/06/07 00:34:42;;;;;;;;;;;;;;;16.29;100.00;99704.25;5057628;28;19913;-64
2021/06/07 00:37:07;;;;;;;;;;;;;;;16.47;100.00;99700.00;5057389;28;20027;-64
2021/06/07 00:39:32;;;;;;;;;;;;;;;16.89;100.00;99698.13;5049490;28;19916;-64
2021/06/07 00:41:58;;;;;;;;;;;;;;;16.54;100.00;99700.56;5042384;28;19921;-64
2021/06/07 00:44:23;;;;;;;;;;;;;;;16.66;100.00;99699.16;5055361;28;20378;-64
2021/06/07 00:46:50;;;;;;;;;;;;;;;16.84;100.00;99697.50;5056581;28;19917;-64
2021/06/07 00:49:15;;;;;;;;;;;;;;;16.62;100.00;99701.03;5055979;28;19924;-63
2021/06/07 00:51:41;;;;;;;;;;;;;;;16.79;100.00;99699.44;5056297;28;19974;-65
2021/06/07 00:54:06;;;;;;;;;;;;;;;16.34;100.00;99698.00;5035451;28;20019;-63
2021/06/07 00:56:32;;;;;;;;;;;;;;;16.14;100.00;99704.91;5036107;28;19921;-63
2021/06/07 00:58:57;;;;;;;;;;;;;;;15.76;100.00;99702.22;5054732;28;19970;-63
2021/06/07 01:01:23;;;;;;;;;;;;;;;15.77;100.00;99703.91;5037986;28;19924;-63
2021/06/07 01:03:49;;;;;;;;;;;;;;;15.84;100.00;99704.50;5033592;28;19971;-63
2021/06/07 01:06:15;;;;;;;;;;;;;;;15.66;100.00;99706.06;5054284;28;19967;-63
2021/06/07 01:08:40;;;;;;;;;;;;;;;15.52;100.00;99709.22;5054266;28;19920;-63
2021/06/07 01:11:06;;;;;;;;;;;;;;;15.98;100.00;99707.34;5041147;28;19970;-63
2021/06/07 01:13:32;;;;;;;;;;;;;;;16.09;100.00;99709.47;5053118;28;19916;-63
2021/06/07 01:15:57;;;;;;;;;;;;;;;15.53;100.00;99712.66;5033315;28;19920;-64
2021/06/07 01:18:23;;;;;;;;;;;;;;;15.71;100.00;99709.34;5031898;28;19921;-63
2021/06/07 01:20:50;;;;;;;;;;;;;;;15.83;100.00;99703.66;5053073;28;19963;-63
2021/06/07 01:23:15;;;;;;;;;;;;;;;15.88;100.00;99704.28;5054225;28;20351;-63
2021/06/07 01:25:42;;;;;;;;;;;;;;;16.22;100.00;99707.19;5056987;28;19924;-63
2021/06/07 01:28:08;;;;;;;;;;;;;;;15.67;100.00;99703.41;5054769;28;19920;-63
2021/06/07 01:30:35;;;;;;;;;;;;;;;15.93;100.00;99700.66;5059674;28;19916;-63
2021/06/07 01:33:00;;;;;;;;;;;;;;;15.80;100.00;99706.34;5055362;28;19917;-63
2021/06/07 01:35:26;;;;;;;;;;;;;;;15.79;100.00;99702.09;5056030;28;20373;-63
2021/06/07 01:37:52;;;;;;;;;;;;;;;16.11;100.00;99707.66;5050988;28;19921;-63
2021/06/07 01:40:18;;;;;;;;;;;;;;;15.77;100.00;99701.31;5055048;28;19930;-63
2021/06/07 01:42:44;;;;;;;;;;;;;;;16.00;100.00;99699.47;5052391;28;19913;-63
2021/06/07 01:45:09;;;;;;;;;;;;;;;16.14;100.00;99699.72;5057227;28;20285;-63
2021/06/07 01:47:35;;;;;;;;;;;;;;;15.96;100.00;99698.75;5049700;28;20199;-63
2021/06/07 01:50:00;;;;;;;;;;;;;;;15.68;100.00;99705.09;5048100;28;20515;-63
2021/06/07 01:52:26;;;;;;;;;;;;;;;15.91;100.00;99694.69;5052637;28;20458;-63
2021/06/07 01:54:51;;;;;;;;;;;;;;;15.89;100.00;99698.16;5031191;28;19924;-63
2021/06/07 01:57:17;;;;;;;;;;;;;;;16.34;100.00;99693.66;5052487;28;19982;-63
2021/06/07 01:59:42;;;;;;;;;;;;;;;16.12;100.00;99698.94;5042301;28;20003;-63
2021/06/07 02:02:08;;;;;;;;;;;;;;;16.24;100.00;99693.22;5033324;28;19921;-63
2021/06/07 02:04:33;;;;;;;;;;;;;;;16.12;100.00;99693.75;5016647;28;19971;-63
2021/06/07 02:06:59;;;;;;;;;;;;;;;15.88;100.00;99698.25;5013597;28;19960;-63
2021/06/07 02:09:24;;;;;;;;;;;;;;;15.88;100.00;99693.06;5014126;28;19925;-63
2021/06/07 02:11:50;;;;;;;;;;;;;;;15.62;100.00;99694.13;5031521;28;20315;-63
2021/06/07 02:14:15;;;;;;;;;;;;;;;15.61;100.00;99689.84;5030895;28;19925;-63
2021/06/07 02:16:41;;;;;;;;;;;;;;;15.65;100.00;99699.19;5032282;28;19971;-63
2021/06/07 02:19:07;;;;;;;;;;;;;;;15.72;100.00;99700.66;5014473;28;19917;-63
2021/06/07 02:21:33;;;;;;;;;;;;;;;16.05;100.00;99702.72;5033116;28;20286;-63
2021/06/07 02:23:58;;;;;;;;;;;;;;;16.70;100.00;99696.34;5034015;28;19921;-63
2021/06/07 02:26:24;;;;;;;;;;;;;;;15.74;100.00;99704.03;5037031;28;19921;-63
2021/06/07 02:28:57;;;;;;;;;;;;;;;16.27;100.00;99700.88;5017980;28;19920;-63
2021/06/07 02:31:22;;;;;;;;;;;;;;;16.34;100.00;99698.00;5038583;28;19917;-63
2021/06/07 02:33:49;;;;;;;;;;;;;;;16.13;100.00;99698.03;5003301;28;19948;-63
2021/06/07 02:36:15;;;;;;;;;;;;;;;15.96;100.00;99693.56;5037509;28;19925;-63
2021/06/07 02:38:40;;;;;;;;;;;;;;;15.69;100.00;99696.41;5041634;28;19967;-63
2021/06/07 02:41:06;;;;;;;;;;;;;;;15.90;100.00;99704.25;5037282;28;19917;-63
2021/06/07 02:43:31;;;;;;;;;;;;;;;16.13;100.00;99705.00;5041486;28;19919;-63
2021/06/07 02:45:56;;;;;;;;;;;;;;;15.39;100.00;99698.50;5037251;28;19971;-63
2021/06/07 02:48:22;;;;;;;;;;;;;;;15.68;100.00;99705.09;5040143;28;19916;-63
2021/06/07 02:50:47;;;;;;;;;;;;;;;15.62;100.00;99704.50;5038754;28;19975;-63
2021/06/07 02:53:13;;;;;;;;;;;;;;;16.22;100.00;99700.25;5021037;28;19921;-63
2021/06/07 02:55:42;;;;;;;;;;;;;;;16.23;100.00;99704.50;5037134;28;19925;-63
2021/06/07 02:58:07;;;;;;;;;;;;;;;16.14;100.00;99701.47;5034231;28;20042;-63
2021/06/07 03:00:37;;;;;;;;;;;;;;;15.77;100.00;99700.47;5057227;28;20456;-63
2021/06/07 03:03:03;;;;;;;;;;;;;;;15.92;100.00;99701.56;5058886;28;19954;-63
2021/06/07 03:05:29;;;;;;;;;;;;;;;16.34;100.00;99703.22;5057936;28;19917;-63
2021/06/07 03:07:54;;;;;;;;;;;;;;;15.97;100.00;99700.47;5039312;28;19920;-63
2021/06/07 03:10:20;;;;;;;;;;;;;;;16.71;100.00;99703.22;5058094;28;20384;-63
2021/06/07 03:12:46;;;;;;;;;;;;;;;16.54;100.00;99700.56;5057638;28;19931;-63
2021/06/07 03:15:12;;;;;;;;;;;;;;;16.93;100.00;99695.28;5036899;28;19931;-63
2021/06/07 03:17:37;;;;;;;;;;;;;;;16.97;100.00;99693.41;5057234;28;19925;-64
2021/06/07 03:20:06;;;;;;;;;;;;;;;16.41;100.00;99699.41;5058416;28;19970;-64
2021/06/07 03:22:32;;;;;;;;;;;;;;;16.66;100.00;99700.00;5034875;28;19920;-64
2021/06/07 03:24:57;;;;;;;;;;;;;;;16.56;100.00;99709.13;5058122;28;19913;-64
2021/06/07 03:27:23;;;;;;;;;;;;;;;16.76;100.00;99704.78;5054159;28;20341;-64
2021/06/07 03:29:48;;;;;;;;;;;;;;;15.85;100.00;99698.38;5056325;28;20381;-63
2021/06/07 03:32:13;;;;;;;;;;;;;;;16.55;100.00;99701.41;5058092;28;20014;-63
2021/06/07 03:34:39;;;;;;;;;;;;;;;16.96;100.00;99693.47;5057808;28;20377;-64
2021/06/07 03:37:04;;;;;;;;;;;;;;;16.60;100.00;99700.25;5055730;28;19924;-64
2021/06/07 03:39:30;;;;;;;;;;;;;;;16.50;100.00;99701.59;5057300;28;20773;-64
2021/06/07 03:41:55;;;;;;;;;;;;;;;16.78;100.00;99702.94;5056713;28;19921;-64
2021/06/07 03:44:20;;;;;;;;;;;;;;;16.85;100.00;99699.16;5057479;28;20393;-64
2021/06/07 03:46:46;;;;;;;;;;;;;;;16.71;100.00;99698.00;5054791;28;20538;-64
2021/06/07 03:49:11;;;;;;;;;;;;;;;16.40;100.00;99692.50;5057581;28;19917;-64
2021/06/07 03:51:36;;;;;;;;;;;;;;;16.54;100.00;99699.72;5058411;28;20024;-63
2021/06/07 03:54:02;;;;;;;;;;;;;;;17.24;100.00;99696.47;5037054;28;19917;-64
2021/06/07 03:56:27;;;;;;;;;;;;;;;16.69;100.00;99699.88;5053732;28;19921;-64
2021/06/07 03:58:52;;;;;;;;;;;;;;;17.10;100.00;99697.09;5027990;28;19975;-63
2021/06/07 04:01:18;;;;;;;;;;;;;;;16.68;100.00;99692.13;5014132;28;19925;-64
2021/06/07 04:03:43;;;;;;;;;;;;;;;16.76;100.00;99687.41;5013786;28;19913;-64
2021/06/07 04:06:08;;;;;;;;;;;;;;;16.94;100.00;99688.31;5014066;28;20037;-64
2021/06/07 04:08:34;;;;;;;;;;;;;;;16.01;100.00;99696.84;5014415;28;20816;-63
2021/06/07 04:10:59;;;;;;;;;;;;;;;16.61;100.00;99694.16;5015153;28;19928;-63
2021/06/07 04:13:24;;;;;;;;;;;;;;;16.86;100.00;99696.50;5014737;28;19937;-63
2021/06/07 04:15:50;;;;;;;;;;;;;;;17.02;100.00;99698.41;5014850;28;19976;-64
2021/06/07 04:18:15;;;;;;;;;;;;;;;16.60;100.00;99705.47;5014313;28;19921;-64
2021/06/07 04:20:40;;;;;;;;;;;;;;;16.89;100.00;99698.13;5013554;28;19917;-64
2021/06/07 04:23:06;;;;;;;;;;;;;;;16.42;100.00;99699.38;5013573;28;19983;-63
2021/06/07 04:25:32;;;;;;;;;;;;;;;16.52;100.00;99699.78;5013934;28;19921;-64
2021/06/07 04:27:57;;;;;;;;;;;;;;;17.20;100.00;99694.91;5014725;28;19921;-63
2021/06/07 04:30:23;;;;;;;;;;;;;;;16.41;100.00;99699.41;5010554;28;20307;-64
2021/06/07 04:32:49;;;;;;;;;;;;;;;16.82;100.00;99689.75;5009684;28;19917;-64
2021/06/07 04:35:15;;;;;;;;;;;;;;;16.99;100.00;99691.59;5009444;28;20080;-64
2021/06/07 04:37:50;;;;;;;;;;;;;;;16.90;100.00;99694.59;5011936;28;19921;-64
2021/06/07 04:40:16;;;;;;;;;;;;;;;17.00;100.00;99692.41;5011596;28;20003;-64
2021/06/07 04:42:41;;;;;;;;;;;;;;;16.80;100.00;99691.56;5013252;28;20012;-64
2021/06/07 04:45:07;;;;;;;;;;;;;;;16.96;100.00;99696.91;5010397;28;20007;-64
2021/06/07 04:47:32;;;;;;;;;;;;;;;16.38;100.00;99691.78;5013044;28;20438;-64
2021/06/07 04:49:58;;;;;;;;;;;;;;;17.04;100.00;99700.00;5011762;28;20012;-64
2021/06/07 04:52:23;;;;;;;;;;;;;;;16.57;100.00;99700.41;5011933;28;19914;-64
2021/06/07 04:54:48;;;;;;;;;;;;;;;16.34;100.00;99703.22;5013272;28;20314;-65
2021/06/07 04:57:14;;;;;;;;;;;;;;;17.21;100.00;99703.56;5018458;28;20535;-63
2021/06/07 04:59:39;;;;;;;;;;;;;;;16.92;100.00;99695.34;5035853;28;20472;-63
2021/06/07 05:02:04;;;;;;;;;;;;;;;17.48;100.00;99699.59;5054888;28;20569;-63
2021/06/07 05:04:30;;;;;;;;;;;;;;;17.03;100.00;99697.47;5056334;28;19919;-63
2021/06/07 05:06:55;;;;;;;;;;;;;;;16.61;100.00;99704.56;5057709;28;19958;-63
2021/06/07 05:09:20;;;;;;;;;;;;;;;16.73;100.00;99703.16;5054806;28;19912;-65
2021/06/07 05:11:46;;;;;;;;;;;;;;;16.72;100.00;99698.88;5037160;28;20400;-63
2021/06/07 05:14:11;;;;;;;;;;;;;;;16.78;100.00;99703.78;5054741;28;19960;-64
2021/06/07 05:16:37;;;;;;;;;;;;;;;16.96;100.00;99711.69;5032720;28;20022;-63
2021/06/07 05:19:02;;;;;;;;;;;;;;;16.46;100.00;99713.88;5048534;28;20423;-63
2021/06/07 05:21:27;;;;;;;;;;;;;;;16.33;100.00;99702.38;5050325;28;19947;-63
2021/06/07 05:23:53;;;;;;;;;;;;;;;16.58;100.00;99717.72;5048124;28;19916;-63
2021/06/07 05:26:18;;;;;;;;;;;;;;;16.46;100.00;99707.84;5056592;28;19948;-63
2021/06/07 05:28:43;;;;;;;;;;;;;;;16.89;100.00;99705.91;5054182;28;19916;-63
2021/06/07 05:31:09;;;;;;;;;;;;;;;16.66;100.00;99715.59;5050825;28;20468;-63
2021/06/07 05:33:34;;;;;;;;;;;;;;;16.14;100.00;99717.91;5055320;28;19920;-63
2021/06/07 05:36:00;;;;;;;;;;;;;;;16.24;100.00;99718.38;5056905;28;20377;-63
2021/06/07 05:38:25;;;;;;;;;;;;;;;16.68;100.00;99715.53;5049589;28;19913;-63
2021/06/07 05:40:53;;;;;;;;;;;;;;;16.92;100.00;99713.56;5053484;28;19916;-63
2021/06/07 05:43:22;;;;;;;;;;;;;;;16.31;100.00;99722.38;5052648;28;19927;-63
2021/06/07 05:45:48;;;;;;;;;;;;;;;15.68;100.00;99725.03;5031892;28;19920;-63
2021/06/07 05:48:13;;;;;;;;;;;;;;;15.39;100.00;99721.84;5022923;28;19916;-64
2021/06/07 05:50:40;;;;;;;;;;;;;;;15.74;100.00;99719.63;5055310;28;20390;-64
2021/06/07 05:53:05;;;;;;;;;;;;;;;16.07;100.00;99726.88;5054362;28;20019;-64
2021/06/07 05:55:31;;;;;;;;;;;;;;;15.84;100.00;99730.47;5056451;28;20350;-64
2021/06/07 05:57:58;;;;;;;;;;;;;;;15.96;100.00;99729.09;5038175;28;19925;-64
2021/06/07 06:00:24;;;;;;;;;;;;;;;16.60;100.00;99731.47;5050433;28;19924;-63
2021/06/07 06:02:51;;;;;;;;;;;;;;;16.21;100.00;99729.72;5049439;28;21196;-63
2021/06/07 06:05:16;;;;;;;;;;;;;;;15.81;100.00;99734.03;5048691;28;19916;-64
2021/06/07 06:07:42;;;;;;;;;;;;;;;16.52;100.00;99728.38;5034627;28;19919;-63
2021/06/07 06:10:08;;;;;;;;;;;;;;;16.99;100.00;99732.34;5051270;28;19923;-64
2021/06/07 06:12:33;;;;;;;;;;;;;;;16.01;100.00;99735.81;5056599;28;19912;-64
2021/06/07 06:14:59;;;;;;;;;;;;;;;16.87;100.00;99725.97;5030533;28;19927;-64
2021/06/07 06:17:24;;;;;;;;;;;;;;;16.51;100.00;99729.28;5054660;28;19924;-64
2021/06/07 06:19:49;;;;;;;;;;;;;;;15.95;100.00;99732.63;5050923;28;19917;-63
2021/06/07 06:22:15;;;;;;;;;;;;;;;15.79;100.00;99728.06;5054732;28;19923;-64
2021/06/07 06:24:40;;;;;;;;;;;;;;;16.21;100.00;99732.31;5035487;28;19916;-64
2021/06/07 06:27:08;;;;;;;;;;;;;;;16.69;100.00;99725.88;5053103;28;19917;-64
2021/06/07 06:29:33;;;;;;;;;;;;;;;16.60;100.00;99736.66;5052588;28;20277;-63
2021/06/07 06:31:59;;;;;;;;;;;;;;;16.54;100.00;99731.75;5035408;28;19931;-64
2021/06/07 06:34:24;;;;;;;;;;;;;;;16.80;100.00;99737.56;5035503;28;20043;-64
2021/06/07 06:36:50;;;;;;;;;;;;;;;16.67;100.00;99732.91;5052742;28;19920;-64
2021/06/07 06:39:15;;;;;;;;;;;;;;;15.82;100.00;99743.50;5053398;28;19931;-64
2021/06/07 06:41:41;;;;;;;;;;;;;;;16.13;100.00;99738.78;5050499;28;19913;-64
2021/06/07 06:44:06;;;;;;;;;;;;;;;16.86;100.00;99737.28;5049841;28;19959;-64
2021/06/07 06:46:32;;;;;;;;;;;;;;;16.72;100.00;99736.13;5049054;28;19913;-64
2021/06/07 06:48:57;;;;;;;;;;;;;;;16.79;100.00;99735.84;5054421;28;19951;-64
2021/06/07 06:51:22;;;;;;;;;;;;;;;16.70;100.00;99737.13;5048498;28;20424;-64
2021/06/07 06:53:48;;;;;;;;;;;;;;;17.08;100.00;99737.97;5050425;28;20011;-64
2021/06/07 06:56:14;;;;;;;;;;;;;;;17.24;100.00;99738.09;5047645;28;19974;-64
2021/06/07 06:58:39;;;;;;;;;;;;;;;17.45;100.00;99745.81;5053379;28;19960;-64
2021/06/07 07:01:05;;;;;;;;;;;;;;;17.42;100.00;99751.97;5056592;28;19920;-64
2021/06/07 07:03:30;;;;;;;;;;;;;;;16.92;100.00;99747.41;5048068;28;20499;-64
2021/06/07 07:05:56;;;;;;;;;;;;;;;16.84;100.00;99757.31;5047401;28;19952;-64
2021/06/07 07:08:22;;;;;;;;;;;;;;;17.27;100.00;99755.34;5049038;28;19979;-64
2021/06/07 07:10:47;;;;;;;;;;;;;;;16.87;100.00;99750.22;5030906;28;19939;-64
2021/06/07 07:13:12;;;;;;;;;;;;;;;16.98;100.00;99752.31;5055025;28;20939;-64
2021/06/07 07:15:38;;;;;;;;;;;;;;;17.54;100.00;99748.78;5035492;28;20703;-63
2021/06/07 07:18:04;;;;;;;;;;;;;;;17.37;100.00;99746.16;5017245;28;19971;-63
2021/06/07 07:20:30;;;;;;;;;;;;;;;16.47;100.00;99762.38;5055954;28;19943;-64
2021/06/07 07:22:55;;;;;;;;;;;;;;;16.83;100.00;99758.22;5058165;28;20488;-64
2021/06/07 07:25:20;;;;;;;;;;;;;;;16.06;100.00;99756.38;5059699;28;19916;-64
2021/06/07 07:27:46;;;;;;;;;;;;;;;16.62;100.00;99750.44;5056090;28;19989;-64
2021/06/07 07:30:12;;;;;;;;;;;;;;;16.14;100.00;99758.66;5063482;28;19924;-64
2021/06/07 07:32:41;;;;;;;;;;;;;;;15.98;100.00;99758.44;5055863;28;19917;-64
2021/06/07 07:35:07;;;;;;;;;;;;;;;16.37;100.00;99749.84;5050930;28;19917;-64
2021/06/07 07:37:33;;;;;;;;;;;;;;;16.89;100.00;99758.78;5061002;28;20382;-64
2021/06/07 07:39:59;;;;;;;;;;;;;;;16.08;100.00;99760.59;5050739;28;19920;-64
2021/06/07 07:42:24;;;;;;;;;;;;;;;16.12;100.00;99763.91;5050708;28;20385;-64
2021/06/07 07:44:50;;;;;;;;;;;;;;;16.24;100.00;99760.78;5059722;28;20546;-64
2021/06/07 07:47:17;;;;;;;;;;;;;;;16.98;100.00;99752.31;5046174;28;20382;-64
2021/06/07 07:49:42;;;;;;;;;;;;;;;16.84;100.00;99757.31;5025075;28;19924;-64
2021/06/07 07:52:08;;;;;;;;;;;;;;;16.78;100.00;99761.00;5051248;28;19925;-64
2021/06/07 07:54:33;;;;;;;;;;;;;;;17.58;100.00;99757.28;5031772;28;19983;-64
2021/06/07 07:56:59;;;;;;;;;;;;;;;17.67;100.00;99766.41;5056870;28;19923;-64
2021/06/07 07:59:24;;;;;;;;;;;;;;;16.81;100.00;99760.06;5055274;28;19932;-64
2021/06/07 08:01:50;;;;;;;;;;;;;;;17.33;100.00;99752.41;5049215;28;19920;-64
2021/06/07 08:04:15;;;;;;;;;;;;;;;17.00;100.00;99766.13;5057243;28;19917;-64
2021/06/07 08:06:43;;;;;;;;;;;;;;;17.02;100.00;99763.44;5057318;28;19919;-64
2021/06/07 08:09:09;;;;;;;;;;;;;;;16.77;100.00;99759.34;5035671;28;20686;-64
2021/06/07 08:11:34;;;;;;;;;;;;;;;17.53;100.00;99759.28;5055044;28;20007;-64
2021/06/07 08:13:59;;;;;;;;;;;;;;;17.85;100.00;99752.50;5055155;28;20328;-64
2021/06/07 08:16:25;;;;;;;;;;;;;;;17.80;100.00;99759.69;5057205;28;19925;-64
2021/06/07 08:18:50;;;;;;;;;;;;;;;17.66;100.00;99757.75;5054088;28;19921;-64
2021/06/07 08:21:15;;;;;;;;;;;;;;;17.98;100.00;99756.19;5053006;28;19920;-64
2021/06/07 08:23:41;;;;;;;;;;;;;;;18.50;100.00;99757.88;5050405;28;19913;-64
2021/06/07 08:26:06;;;;;;;;;;;;;;;18.26;100.00;99753.94;5052844;28;19913;-64
2021/06/07 08:28:32;;;;;;;;;;;;;;;17.62;100.00;99750.19;5056858;28;19921;-64
2021/06/07 08:30:57;;;;;;;;;;;;;;;17.55;100.00;99752.22;5058551;28;19913;-64
2021/06/07 08:33:22;;;;;;;;;;;;;;;18.12;100.00;99754.66;5054680;28;19923;-64
2021/06/07 08:35:48;;;;;;;;;;;;;;;18.01;100.00;99755.19;5037507;28;20010;-64
2021/06/07 08:38:13;;;;;;;;;;;;;;;19.40;100.00;99759.97;5052315;28;19921;-64
2021/06/07 08:40:38;;;;;;;;;;;;;;;19.00;100.00;99761.34;5030335;28;20394;-64
2021/06/07 08:43:04;;;;;;;;;;;;;;;18.83;100.00;99761.41;5051750;28;19924;-64
2021/06/07 08:45:30;;;;;;;;;;;;;;;18.74;100.00;99760.94;5032813;28;19991;-64
2021/06/07 08:47:55;;;;;;;;;;;;;;;17.38;100.00;99771.28;5052647;28;19916;-64
2021/06/07 08:50:22;;;;;;;;;;;;;;;18.03;100.00;99768.16;5050437;28;19991;-64
2021/06/07 08:52:47;;;;;;;;;;;;;;;17.66;100.00;99768.19;5049925;28;19916;-64
2021/06/07 08:55:13;;;;;;;;;;;;;;;17.79;100.00;99768.44;5052246;28;19927;-64
2021/06/07 08:57:40;;;;;;;;;;;;;;;17.42;100.00;99762.38;5055062;28;19920;-64
2021/06/07 09:00:06;;;;;;;;;;;;;;;18.10;100.00;99762.53;5035872;28;19921;-64
2021/06/07 09:02:32;;;;;;;;;;;;;;;17.84;100.00;99766.47;5027196;28;20934;-64
2021/06/07 09:04:58;;;;;;;;;;;;;;;18.58;100.00;99766.13;5037329;28;19916;-64
2021/06/07 09:07:23;;;;;;;;;;;;;;;18.01;100.00;99760.41;5036635;28;19920;-64
2021/06/07 09:10:05;;;;;;;;;;;;;;;18.49;100.00;99765.78;5030439;28;19920;-64
2021/06/07 09:12:30;;;;;;;;;;;;;;;18.16;100.00;99766.63;5037050;28;19967;-64
2021/06/07 09:14:55;;;;;;;;;;;;;;;18.63;100.00;99765.88;5037036;28;19924;-65
2021/06/07 09:17:22;;;;;;;;;;;;;;;19.37;100.00;99756.69;5030304;28;19920;-64
2021/06/07 09:19:49;;;;;;;;;;;;;;;19.85;100.00;99758.28;5030650;28;19913;-64
2021/06/07 09:22:21;;;;;;;;;;;;;;;19.85;100.00;99766.13;5032778;28;19916;-64
2021/06/07 09:25:02;;;;;;;;;;;;;;;19.26;100.00;99762.50;5036190;28;19922;-64
2021/06/07 09:27:27;;;;;;;;;;;;;;;18.41;100.00;99767.97;5032956;28;19917;-64
2021/06/07 09:29:52;;;;;;;;;;;;;;;18.78;100.00;99757.28;5042732;28;20058;-64
2021/06/07 09:32:19;;;;;;;;;;;;;;;18.84;100.00;99761.34;5035498;28;20017;-64
2021/06/07 09:34:45;;;;;;;;;;;;;;;18.63;100.00;99758.06;5039344;28;19912;-64
2021/06/07 09:37:11;;;;;;;;;;;;;;;19.20;100.00;99762.84;5029456;28;20181;-64
2021/06/07 09:39:38;;;;;;;;;;;;;;;20.72;100.00;99759.25;5040507;28;19963;-64
2021/06/07 09:42:08;;;;;;;;;;;;;;;19.11;100.00;99769.44;5030734;28;19919;-64
2021/06/07 09:44:47;;;;;;;;;;;;;;;19.40;100.00;99764.34;5035532;28;19913;-64
2021/06/07 09:47:17;;;;;;;;;;;;;;;19.36;100.00;99768.06;5029992;28;20236;-64
2021/06/07 09:49:47;;;;;;;;;;;;;;;20.86;100.00;99772.31;5031945;28;19920;-64
2021/06/07 09:52:13;;;;;;;;;;;;;;;19.00;100.00;99769.19;5030173;28;19912;-64
2021/06/07 09:54:39;;;;;;;;;;;;;;;18.53;100.00;99769.91;5031854;28;19917;-64
2021/06/07 09:57:04;;;;;;;;;;;;;;;18.88;100.00;99768.06;5033492;28;20397;-64
2021/06/07 09:59:37;;;;;;;;;;;;;;;18.61;100.00;99775.59;5031600;28;20263;-64
2021/06/07 10:02:12;;;;;;;;;;;;;;;19.39;100.00;99770.53;5027614;28;19975;-64
2021/06/07 10:04:51;;;;;;;;;;;;;;;19.70;100.00;99766.19;5028789;28;19917;-64
2021/06/07 10:07:17;;;;;;;;;;;;;;;19.20;100.00;99774.16;5032622;28;19966;-64
2021/06/07 10:10:01;;;;;;;;;;;;;;;19.21;100.00;99772.38;5030691;28;19996;-64
2021/06/07 10:12:26;;;;;;;;;;;;;;;21.02;100.00;99759.09;5034059;28;19920;-64
2021/06/07 10:14:51;;;;;;;;;;;;;;;19.10;100.00;99767.75;5028815;28;19919;-64
2021/06/07 10:17:17;;;;;;;;;;;;;;;20.33;100.00;99765.94;5033381;28;20007;-64
2021/06/07 10:22:10;;;;;;;;;;;;;;;19.59;100.00;99769.38;5033806;28;19931;-64
2021/06/07 10:24:35;;;;;;;;;;;;;;;20.71;100.00;99760.19;5030642;28;20003;-64
2021/06/07 10:27:02;;;;;;;;;;;;;;;20.86;100.00;99764.44;5035275;28;19920;-64
2021/06/07 10:29:33;;;;;;;;;;;;;;;18.69;100.00;99768.19;5033734;28;19913;-64
2021/06/07 10:32:09;;;;;;;;;;;;;;;19.95;100.00;99769.03;5030242;28;19917;-64
2021/06/07 10:34:46;;;;;;;;;;;;;;;19.42;100.00;99762.50;5032943;28;20011;-64
2021/06/07 10:37:11;;;;;;;;;;;;;;;19.49;100.00;99765.59;5037441;28;20033;-64
2021/06/07 10:39:36;;;;;;;;;;;;;;;19.68;100.00;99760.16;5038726;28;19917;-64
2021/06/07 10:42:02;;;;;;;;;;;;;;;19.46;100.00;99769.25;5035790;28;19971;-64
2021/06/07 10:44:37;;;;;;;;;;;;;;;20.25;100.00;99768.16;5031749;28;19916;-64
2021/06/07 10:47:06;;;;;;;;;;;;;;;20.52;100.00;99764.81;5033529;28;19924;-64
2021/06/07 10:49:48;;;;;;;;;;;;;;;21.09;100.00;99755.16;5032938;28;19917;-64
2021/06/07 10:52:17;;;;;;;;;;;;;;;19.81;100.00;99762.00;5036220;28;19924;-64
2021/06/07 10:54:43;;;;;;;;;;;;;;;20.01;100.00;99771.31;5037623;28;19913;-64
2021/06/07 10:57:27;;;;;;;;;;;;;;;18.95;100.00;99765.97;5030692;28;19999;-64
2021/06/07 10:59:54;;;;;;;;;;;;;;;19.56;100.00;99765.16;5029835;28;19932;-64
2021/06/07 11:02:19;;;;;;;;;;;;;;;18.92;100.00;99773.97;5038545;28;19917;-64
2021/06/07 11:04:45;;;;;;;;;;;;;;;19.37;100.00;99772.38;5036159;28;19924;-64
2021/06/07 11:07:11;;;;;;;;;;;;;;;18.71;100.00;99774.16;5042545;28;19952;-64
2021/06/07 11:09:56;;;;;;;;;;;;;;;18.70;100.00;99769.00;5035165;28;19987;-64
2021/06/07 11:12:31;;;;;;;;;;;;;;;18.76;100.00;99768.69;5038151;28;19923;-65
2021/06/07 11:15:13;;;;;;;;;;;;;;;19.23;100.00;99778.38;5019602;28;19913;-64
2021/06/07 11:17:39;;;;;;;;;;;;;;;19.42;100.00;99767.72;5040427;28;19927;-65
2021/06/07 11:20:04;;;;;;;;;;;;;;;19.30;100.00;99768.41;5028198;28;20390;-64
2021/06/07 11:22:50;;;;;;;;;;;;;;;20.43;100.00;99766.22;5034609;28;19967;-64
2021/06/07 11:25:15;;;;;;;;;;;;;;;20.30;100.00;99766.13;5034304;28;19961;-64
2021/06/07 11:27:40;;;;;;;;;;;;;;;21.61;100.00;99761.47;5036503;28;19963;-64
2021/06/07 11:30:09;;;;;;;;;;;;;;;20.17;100.00;99770.41;5036984;28;20025;-64
2021/06/07 11:32:38;;;;;;;;;;;;;;;19.30;100.00;99765.81;5034963;28;19924;-64
2021/06/07 11:35:04;;;;;;;;;;;;;;;19.47;100.00;99757.84;5039489;28;19940;-64
2021/06/07 11:37:29;;;;;;;;;;;;;;;19.57;100.00;99761.63;5031997;28;19921;-64
2021/06/07 11:39:54;;;;;;;;;;;;;;;20.87;100.00;99749.59;5036587;28;20456;-64
2021/06/07 11:42:21;;;;;;;;;;;;;;;20.50;100.00;99764.06;5017792;28;19920;-64
2021/06/07 11:44:50;;;;;;;;;;;;;;;19.26;100.00;99762.50;5016116;28;19920;-64
2021/06/07 11:47:16;;;;;;;;;;;;;;;19.10;100.00;99767.75;5035615;28;19971;-64
2021/06/07 11:49:57;;;;;;;;;;;;;;;20.70;100.00;99755.88;5034887;28;19932;-64
2021/06/07 11:52:52;;;;;;;;;;;;;;;19.53;100.00;99759.28;5038173;28;19916;-64
2021/06/07 11:55:27;;;;;;;;;;;;;;;20.14;100.00;99754.88;5029434;28;20012;-64
2021/06/07 11:57:57;;;;;;;;;;;;;;;20.14;100.00;99754.88;5034904;28;19921;-64
2021/06/07 12:00:22;;;;;;;;;;;;;;;19.37;100.00;99754.91;5031638;28;20038;-64
2021/06/07 12:02:48;;;;;;;;;;;;;;;19.81;100.00;99753.34;5032317;28;19921;-64
2021/06/07 12:05:14;;;;;;;;;;;;;;;19.65;100.00;99754.19;5034790;28;19917;-64
2021/06/07 12:07:43;;;;;;;;;;;;;;;19.90;100.00;99758.03;5031199;28;19917;-65
2021/06/07 12:10:12;;;;;;;;;;;;;;;20.14;100.00;99754.88;5029104;28;19939;-64
2021/06/07 12:12:37;;;;;;;;;;;;;;;19.85;100.00;99749.63;5033182;28;19913;-65
2021/06/07 12:15:13;;;;;;;;;;;;;;;20.78;100.00;99745.78;5036240;28;19913;-65
2021/06/07 12:17:42;;;;;;;;;;;;;;;20.58;100.00;99748.78;5032547;28;19928;-65
2021/06/07 12:20:08;;;;;;;;;;;;;;;20.92;100.00;99746.69;5036244;28;19924;-64
2021/06/07 12:22:39;;;;;;;;;;;;;;;20.25;100.00;99758.56;5034346;28;19917;-64
2021/06/07 12:25:31;;;;;;;;;;;;;;;20.89;100.00;99748.56;5014619;28;20390;-64
2021/06/07 12:28:20;;;;;;;;;;;;;;;20.19;100.00;99758.09;5034444;28;20380;-64
2021/06/07 12:30:56;;;;;;;;;;;;;;;21.04;100.00;99740.69;5036227;28;19921;-65
2021/06/07 12:33:28;;;;;;;;;;;;;;;21.07;100.00;99736.09;5037379;28;19923;-64
2021/06/07 12:35:53;;;;;;;;;;;;;;;21.43;100.00;99736.47;5024931;28;20361;-65